Weyers Cave, VA

10:34 AM EST on February 23, 2017 (GMT -0500)
Shenandoah Valley Regional

Weather History for KSHD - May, 2014

Change the Weather History Date:

Sunday, May 4, 2014

  Actual Average Record
Temperature  
Mean Temperature 59 °F -  
Max Temperature 76 °F 72 °F 89 °F (2001)
Min Temperature 42 °F 47 °F 36 °F (2013)
Degree Days  
Heating Degree Days 6    
Growing Degree Days 9 (Base 50)    
Moisture  
Dew Point 37 °F    
Average Humidity 42    
Maximum Humidity 78    
Minimum Humidity 23    
Precipitation  
Precipitation 0.00 in - - ()
Sea Level Pressure  
Sea Level Pressure 29.89 in    
Wind  
Wind Speed 6 mph (West)    
Max Wind Speed 28 mph    
Max Gust Speed 34 mph    
Visibility 10 miles    
Events      
Averages and records for this station are not official NWS values.
T = Trace of Precipitation, MM = Missing Value Source: NWS Daily Summary

Daily Weather History Graph

Daily Weather History Graph

Search for Another Location

Airport or City:

Trip Planner

Search our weather history database for the weather conditions in past years. The results will help you decide how hot, cold, wet, or windy it might be!

Date:

Astronomy

May. 04, 2014 Rise Set
Actual Time 6:15 AM EDT 8:09 PM EDT
Civil Twilight 5:46 AM EDT 8:38 PM EDT
Nautical Twilight 5:12 AM EDT 9:13 PM EDT
Astronomical Twilight 4:34 AM EDT 9:51 PM EDT
Moon 10:38 AM EDT (5/4) 12:13 AM EDT (5/4)
Length of Visible Light 14h 51m
Length of Day
13h 54m
Waxing Crescent, 27% of the Moon is Illuminated
May 4
Waxing Crescent
May 6
First Quarter
May 14
Full
May 21
Last Quarter
May 28
New

Hourly Weather History & Observations

Time (EDT) Temp. Windchill Dew Point Humidity Pressure Visibility Wind Dir Wind Speed Gust Speed Precip Events Conditions
12:15 AM 54.7 °F - 36.7 °F 51% 29.91 in 10.0 mi Calm Calm - N/A   Scattered Clouds
12:35 AM 56.1 °F - 35.8 °F 46% 29.92 in 10.0 mi Calm Calm - N/A   Scattered Clouds
12:55 AM 56.1 °F - 35.4 °F 46% 29.93 in 10.0 mi West 3.5 mph - N/A   Scattered Clouds
1:15 AM 57.6 °F - 34.0 °F 41% 29.93 in 10.0 mi Calm Calm - N/A   Scattered Clouds
1:35 AM 55.9 °F - 33.8 °F 43% 29.93 in 10.0 mi WNW 3.5 mph - N/A   Clear
1:55 AM 54.3 °F - 34.5 °F 47% 29.93 in 10.0 mi WNW 3.5 mph - N/A   Clear
2:15 AM 54.9 °F - 33.6 °F 45% 29.93 in 10.0 mi Calm Calm - N/A   Clear
2:35 AM 50.0 °F - 35.8 °F 58% 29.93 in 10.0 mi Calm Calm - N/A   Clear
2:55 AM 50.2 °F - 34.9 °F 56% 29.93 in 10.0 mi Calm Calm - N/A   Clear
3:15 AM 48.7 °F - 34.7 °F 58% 29.92 in 10.0 mi Calm Calm - N/A   Clear
3:35 AM 45.9 °F - 35.8 °F 68% 29.93 in 10.0 mi Calm Calm - N/A   Clear
3:55 AM 46.4 °F - 35.6 °F 66% 29.93 in 10.0 mi Calm Calm - N/A   Clear
4:15 AM 45.9 °F - 35.4 °F 67% 29.93 in 10.0 mi Calm Calm - N/A   Clear
4:35 AM 44.8 °F - 35.2 °F 69% 29.93 in 10.0 mi Calm Calm - N/A   Clear
4:55 AM 42.4 °F - 36.1 °F 78% 29.92 in 10.0 mi Calm Calm - N/A   Clear
5:15 AM 43.2 °F - 35.8 °F 75% 29.92 in 10.0 mi Calm Calm - N/A   Clear
5:35 AM 43.9 °F 42.3 °F 34.9 °F 71% 29.92 in 10.0 mi South 3.5 mph - N/A   Clear
5:55 AM 43.7 °F - 35.6 °F 73% 29.92 in 10.0 mi Calm Calm - N/A   Clear
6:15 AM 43.0 °F 41.3 °F 35.2 °F 74% 29.93 in 10.0 mi SW 3.5 mph - N/A   Clear
6:35 AM 43.7 °F 42.1 °F 35.1 °F 72% 29.94 in 10.0 mi WSW 3.5 mph - N/A   Clear
6:55 AM 46.2 °F 45.0 °F 35.1 °F 65% 29.94 in 10.0 mi SW 3.5 mph - N/A   Clear
7:15 AM 48.4 °F - 36.7 °F 64% 29.95 in 10.0 mi SSW 3.5 mph - N/A   Clear
7:35 AM 52.3 °F - 36.7 °F 55% 29.95 in 10.0 mi SSW 6.9 mph - N/A   Clear
7:55 AM 55.0 °F - 35.6 °F 48% 29.95 in 10.0 mi SSW 8.1 mph - N/A   Clear
8:15 AM 58.1 °F - 34.2 °F 41% 29.94 in 10.0 mi South 9.2 mph - N/A   Clear
8:35 AM 60.1 °F - 34.7 °F 39% 29.93 in 10.0 mi South 8.1 mph - N/A   Clear
8:55 AM 61.7 °F - 33.6 °F 35% 29.91 in 10.0 mi South 9.2 mph - N/A   Clear
9:15 AM 62.8 °F - 34.3 °F 35% 29.92 in 10.0 mi SSW 10.4 mph - N/A   Clear
9:35 AM 63.7 °F - 34.0 °F 33% 29.91 in 10.0 mi SW 12.7 mph 17.3 mph N/A   Clear
9:55 AM 65.3 °F - 34.9 °F 32% 29.90 in 10.0 mi SW 13.8 mph - N/A   Clear
10:15 AM 65.5 °F - 33.4 °F 30% 29.90 in 10.0 mi SW 15.0 mph 23.0 mph N/A   Clear
10:35 AM 66.4 °F - 34.7 °F 31% 29.89 in 10.0 mi SW 17.3 mph 21.9 mph N/A   Scattered Clouds
10:55 AM 67.6 °F - 35.1 °F 30% 29.89 in 10.0 mi SW 11.5 mph 16.1 mph N/A   Scattered Clouds
11:15 AM 69.8 °F - 36.9 °F 30% 29.89 in 10.0 mi WSW 10.4 mph 18.4 mph N/A   Clear
11:35 AM 71.1 °F - 37.4 °F 29% 29.88 in 10.0 mi WSW 15.0 mph 19.6 mph N/A   Scattered Clouds
11:55 AM 71.8 °F - 36.1 °F 27% 29.87 in 10.0 mi West 13.8 mph 20.7 mph N/A   Scattered Clouds
12:15 PM 71.6 °F - 36.0 °F 27% 29.87 in 10.0 mi West 10.4 mph 20.7 mph N/A   Mostly Cloudy
12:35 PM 71.2 °F - 37.8 °F 29% 29.86 in 10.0 mi West 11.5 mph 18.4 mph N/A   Overcast
12:55 PM 70.9 °F - 37.6 °F 30% 29.85 in 10.0 mi West 15.0 mph 23.0 mph N/A   Overcast
1:15 PM 71.4 °F - 37.4 °F 29% 29.85 in 10.0 mi West 17.3 mph 23.0 mph N/A   Overcast
1:35 PM 71.8 °F - 37.6 °F 29% 29.84 in 10.0 mi West 5.8 mph 19.6 mph N/A   Overcast
1:55 PM 71.8 °F - 37.6 °F 29% 29.84 in 10.0 mi West 13.8 mph 19.6 mph N/A   Overcast
2:15 PM 73.0 °F - 37.2 °F 27% 29.83 in 10.0 mi West 11.5 mph 31.1 mph N/A   Overcast
2:35 PM 74.3 °F - 35.2 °F 24% 29.82 in 10.0 mi West 18.4 mph 34.5 mph N/A   Mostly Cloudy
2:55 PM 73.9 °F - 34.5 °F 24% 29.81 in 10.0 mi West 18.4 mph 31.1 mph N/A   Mostly Cloudy
3:15 PM 74.8 °F - 36.1 °F 25% 29.81 in 10.0 mi WNW 23.0 mph 32.2 mph N/A   Mostly Cloudy
3:35 PM 75.7 °F - 36.7 °F 24% 29.81 in 10.0 mi WNW 18.4 mph 33.4 mph N/A   Mostly Cloudy
3:55 PM 76.1 °F - 38.1 °F 25% 29.80 in 10.0 mi West 18.4 mph 33.4 mph N/A   Scattered Clouds
4:15 PM 76.5 °F - 36.3 °F 23% 29.80 in 10.0 mi West 21.9 mph 33.4 mph N/A   Scattered Clouds
4:35 PM 75.9 °F - 37.4 °F 25% 29.80 in 10.0 mi WNW 21.9 mph 27.6 mph N/A   Scattered Clouds
4:55 PM 75.4 °F - 37.8 °F 26% 29.80 in 10.0 mi WNW 12.7 mph 24.2 mph N/A   Mostly Cloudy
5:15 PM 75.0 °F - 37.0 °F 25% 29.81 in 10.0 mi WNW 21.9 mph 29.9 mph N/A   Mostly Cloudy
5:35 PM 74.3 °F - 37.6 °F 26% 29.82 in 10.0 mi NW 21.9 mph 31.1 mph N/A   Scattered Clouds
5:55 PM 73.4 °F - 36.9 °F 26% 29.82 in 10.0 mi NW 27.6 mph 34.5 mph N/A   Mostly Cloudy
6:15 PM 73.2 °F - 37.6 °F 27% 29.84 in 10.0 mi WNW 16.1 mph 34.5 mph N/A   Scattered Clouds
6:35 PM 72.7 °F - 38.5 °F 29% 29.83 in 10.0 mi West 11.5 mph 23.0 mph N/A   Scattered Clouds
6:55 PM 71.8 °F - 38.3 °F 30% 29.84 in 10.0 mi West 20.7 mph 33.4 mph N/A   Mostly Cloudy
7:15 PM 70.7 °F - 37.8 °F 30% 29.84 in 10.0 mi WNW 18.4 mph 27.6 mph N/A   Scattered Clouds
7:35 PM 69.6 °F - 38.5 °F 32% 29.87 in 10.0 mi West 9.2 mph 18.4 mph N/A   Scattered Clouds
7:55 PM 68.4 °F - 38.8 °F 34% 29.88 in 10.0 mi West 12.7 mph 25.3 mph N/A   Scattered Clouds
8:15 PM 66.7 °F - 40.1 °F 38% 29.90 in 10.0 mi WNW 13.8 mph 20.7 mph N/A   Mostly Cloudy
8:35 PM 66.2 °F - 39.7 °F 38% 29.90 in 10.0 mi WNW 12.7 mph 21.9 mph N/A   Scattered Clouds
8:55 PM 64.6 °F - 40.6 °F 42% 29.91 in 10.0 mi WNW 12.7 mph 17.3 mph N/A   Scattered Clouds
9:15 PM 63.9 °F - 40.6 °F 43% 29.93 in 10.0 mi NW 9.2 mph - N/A   Mostly Cloudy
9:35 PM 61.3 °F - 41.7 °F 49% 29.93 in 10.0 mi West 6.9 mph - N/A   Scattered Clouds
9:55 PM 63.5 °F - 41.0 °F 44% 29.93 in 10.0 mi West 10.4 mph 18.4 mph N/A   Clear
10:15 PM 62.4 °F - 41.5 °F 46% 29.93 in 10.0 mi West 5.8 mph 17.3 mph N/A   Clear
10:35 PM 61.2 °F - 41.9 °F 49% 29.93 in 10.0 mi West 5.8 mph - N/A   Clear
10:55 PM 59.0 °F - 42.8 °F 55% 29.93 in 10.0 mi WNW 4.6 mph - N/A   Clear
11:15 PM 59.4 °F - 42.4 °F 54% 29.93 in 10.0 mi WNW 6.9 mph - N/A   Clear
11:35 PM 60.3 °F - 41.7 °F 50% 29.94 in 10.0 mi West 6.9 mph - N/A   Clear
11:55 PM 59.4 °F - 41.4 °F 51% 29.94 in 10.0 mi WNW 6.9 mph - N/A   Clear